sensor_id;sensor_type;location;lat;lon;timestamp;P1;durP1;ratioP1;P2;durP2;ratioP2
75320;SDS011;63920;52.130;5.584;2022-10-16T00:02:12;8.00;;;2.70;;
75320;SDS011;63920;52.130;5.584;2022-10-16T00:04:37;6.07;;;2.83;;
75320;SDS011;63920;52.130;5.584;2022-10-16T00:07:03;6.82;;;3.13;;
75320;SDS011;63920;52.130;5.584;2022-10-16T00:09:28;8.00;;;3.28;;
75320;SDS011;63920;52.130;5.584;2022-10-16T00:11:54;8.43;;;3.40;;
75320;SDS011;63920;52.130;5.584;2022-10-16T00:14:19;8.35;;;2.88;;
75320;SDS011;63920;52.130;5.584;2022-10-16T00:16:45;9.55;;;3.50;;
75320;SDS011;63920;52.130;5.584;2022-10-16T00:19:10;4.55;;;2.80;;
75320;SDS011;63920;52.130;5.584;2022-10-16T00:21:37;5.70;;;3.15;;
75320;SDS011;63920;52.130;5.584;2022-10-16T00:24:04;5.78;;;2.70;;
75320;SDS011;63920;52.130;5.584;2022-10-16T00:26:33;5.72;;;3.17;;
75320;SDS011;63920;52.130;5.584;2022-10-16T00:29:00;5.18;;;2.95;;
75320;SDS011;63920;52.130;5.584;2022-10-16T00:31:26;7.60;;;3.00;;
75320;SDS011;63920;52.130;5.584;2022-10-16T00:33:52;4.75;;;2.83;;
75320;SDS011;63920;52.130;5.584;2022-10-16T00:36:19;7.57;;;3.42;;
75320;SDS011;63920;52.130;5.584;2022-10-16T00:38:46;5.85;;;2.83;;
75320;SDS011;63920;52.130;5.584;2022-10-16T00:41:14;5.82;;;3.05;;
75320;SDS011;63920;52.130;5.584;2022-10-16T00:43:47;5.60;;;3.05;;
75320;SDS011;63920;52.130;5.584;2022-10-16T00:46:25;8.38;;;3.50;;
75320;SDS011;63920;52.130;5.584;2022-10-16T00:49:09;5.57;;;2.80;;
75320;SDS011;63920;52.130;5.584;2022-10-16T00:54:31;5.55;;;3.17;;
75320;SDS011;63920;52.130;5.584;2022-10-16T00:56:58;5.28;;;2.95;;
75320;SDS011;63920;52.130;5.584;2022-10-16T00:59:27;4.82;;;3.33;;
75320;SDS011;63920;52.130;5.584;2022-10-16T01:01:55;3.85;;;2.80;;
75320;SDS011;63920;52.130;5.584;2022-10-16T01:04:22;6.38;;;3.03;;
75320;SDS011;63920;52.130;5.584;2022-10-16T01:18:37;5.22;;;3.00;;
75320;SDS011;63920;52.130;5.584;2022-10-16T01:21:10;8.27;;;2.67;;
75320;SDS011;63920;52.130;5.584;2022-10-16T01:32:05;4.50;;;3.00;;
75320;SDS011;63920;52.130;5.584;2022-10-16T01:34:47;4.07;;;2.90;;
75320;SDS011;63920;52.130;5.584;2022-10-16T01:37:22;4.60;;;2.95;;
75320;SDS011;63920;52.130;5.584;2022-10-16T01:40:02;3.65;;;3.13;;
75320;SDS011;63920;52.130;5.584;2022-10-16T01:42:42;3.53;;;2.83;;
75320;SDS011;63920;52.130;5.584;2022-10-16T01:45:11;5.80;;;2.63;;
75320;SDS011;63920;52.130;5.584;2022-10-16T01:47:39;5.45;;;3.25;;
75320;SDS011;63920;52.130;5.584;2022-10-16T01:50:06;6.40;;;2.65;;
75320;SDS011;63920;52.130;5.584;2022-10-16T01:52:34;5.88;;;3.10;;
75320;SDS011;63920;52.130;5.584;2022-10-16T01:55:03;8.60;;;3.65;;
75320;SDS011;63920;52.130;5.584;2022-10-16T01:57:32;6.00;;;2.83;;
75320;SDS011;63920;52.130;5.584;2022-10-16T02:00:03;5.70;;;3.20;;
75320;SDS011;63920;52.130;5.584;2022-10-16T02:02:32;8.02;;;3.22;;
75320;SDS011;63920;52.130;5.584;2022-10-16T02:05:02;7.97;;;3.38;;
75320;SDS011;63920;52.130;5.584;2022-10-16T02:07:51;6.47;;;3.58;;
75320;SDS011;63920;52.130;5.584;2022-10-16T02:10:17;6.55;;;3.67;;
75320;SDS011;63920;52.130;5.584;2022-10-16T02:12:55;3.95;;;3.17;;
75320;SDS011;63920;52.130;5.584;2022-10-16T02:15:25;4.55;;;3.00;;
75320;SDS011;63920;52.130;5.584;2022-10-16T02:17:51;3.42;;;2.80;;
75320;SDS011;63920;52.130;5.584;2022-10-16T02:20:16;5.22;;;2.78;;
75320;SDS011;63920;52.130;5.584;2022-10-16T02:22:43;6.80;;;3.25;;
75320;SDS011;63920;52.130;5.584;2022-10-16T02:25:15;4.80;;;3.40;;
75320;SDS011;63920;52.130;5.584;2022-10-16T02:28:07;5.20;;;2.60;;
75320;SDS011;63920;52.130;5.584;2022-10-16T02:30:41;7.53;;;3.38;;
75320;SDS011;63920;52.130;5.584;2022-10-16T02:33:10;6.50;;;3.30;;
75320;SDS011;63920;52.130;5.584;2022-10-16T02:35:38;3.75;;;2.97;;
75320;SDS011;63920;52.130;5.584;2022-10-16T02:38:06;5.55;;;3.22;;
75320;SDS011;63920;52.130;5.584;2022-10-16T02:40:33;3.90;;;3.30;;
75320;SDS011;63920;52.130;5.584;2022-10-16T02:42:59;5.30;;;3.25;;
75320;SDS011;63920;52.130;5.584;2022-10-16T02:45:25;3.78;;;3.17;;
75320;SDS011;63920;52.130;5.584;2022-10-16T02:47:51;6.85;;;3.33;;
75320;SDS011;63920;52.130;5.584;2022-10-16T02:50:16;4.10;;;3.30;;
75320;SDS011;63920;52.130;5.584;2022-10-16T02:52:42;3.90;;;2.88;;
75320;SDS011;63920;52.130;5.584;2022-10-16T02:55:08;2.88;;;2.67;;
75320;SDS011;63920;52.130;5.584;2022-10-16T02:57:33;4.43;;;3.40;;
75320;SDS011;63920;52.130;5.584;2022-10-16T03:00:02;3.63;;;3.33;;
75320;SDS011;63920;52.130;5.584;2022-10-16T03:02:31;6.50;;;3.25;;
75320;SDS011;63920;52.130;5.584;2022-10-16T03:04:56;5.93;;;3.83;;
75320;SDS011;63920;52.130;5.584;2022-10-16T03:07:22;3.95;;;3.42;;
75320;SDS011;63920;52.130;5.584;2022-10-16T03:09:48;3.65;;;3.35;;
75320;SDS011;63920;52.130;5.584;2022-10-16T03:12:13;4.25;;;3.63;;
75320;SDS011;63920;52.130;5.584;2022-10-16T03:14:39;6.63;;;3.42;;
75320;SDS011;63920;52.130;5.584;2022-10-16T03:17:05;3.63;;;3.33;;
75320;SDS011;63920;52.130;5.584;2022-10-16T03:19:31;4.90;;;3.05;;
75320;SDS011;63920;52.130;5.584;2022-10-16T03:21:56;3.58;;;2.63;;
75320;SDS011;63920;52.130;5.584;2022-10-16T03:24:22;5.30;;;3.03;;
75320;SDS011;63920;52.130;5.584;2022-10-16T03:26:47;5.00;;;3.33;;
75320;SDS011;63920;52.130;5.584;2022-10-16T03:29:13;5.55;;;3.35;;
75320;SDS011;63920;52.130;5.584;2022-10-16T03:31:38;4.47;;;2.90;;
75320;SDS011;63920;52.130;5.584;2022-10-16T03:34:04;3.30;;;3.00;;
75320;SDS011;63920;52.130;5.584;2022-10-16T03:36:29;5.82;;;3.58;;
75320;SDS011;63920;52.130;5.584;2022-10-16T03:38:55;3.42;;;3.15;;
75320;SDS011;63920;52.130;5.584;2022-10-16T03:41:20;5.35;;;3.65;;
75320;SDS011;63920;52.130;5.584;2022-10-16T03:43:46;3.58;;;3.28;;
75320;SDS011;63920;52.130;5.584;2022-10-16T03:46:11;4.22;;;3.35;;
75320;SDS011;63920;52.130;5.584;2022-10-16T03:48:37;3.40;;;3.03;;
75320;SDS011;63920;52.130;5.584;2022-10-16T03:51:02;4.18;;;2.92;;
75320;SDS011;63920;52.130;5.584;2022-10-16T03:53:28;4.97;;;3.30;;
75320;SDS011;63920;52.130;5.584;2022-10-16T03:55:54;5.60;;;2.95;;
75320;SDS011;63920;52.130;5.584;2022-10-16T03:58:19;5.50;;;2.90;;
75320;SDS011;63920;52.130;5.584;2022-10-16T04:00:45;5.18;;;3.00;;
75320;SDS011;63920;52.130;5.584;2022-10-16T04:03:12;3.53;;;3.08;;
75320;SDS011;63920;52.130;5.584;2022-10-16T04:05:38;5.28;;;3.13;;
75320;SDS011;63920;52.130;5.584;2022-10-16T04:08:03;3.58;;;2.92;;
75320;SDS011;63920;52.130;5.584;2022-10-16T04:10:29;5.72;;;3.92;;
75320;SDS011;63920;52.130;5.584;2022-10-16T04:12:55;3.17;;;2.90;;
75320;SDS011;63920;52.130;5.584;2022-10-16T04:15:21;2.63;;;2.33;;
75320;SDS011;63920;52.130;5.584;2022-10-16T04:17:47;2.75;;;2.50;;
75320;SDS011;63920;52.130;5.584;2022-10-16T04:20:13;4.18;;;3.00;;
75320;SDS011;63920;52.130;5.584;2022-10-16T04:22:38;4.53;;;2.70;;
75320;SDS011;63920;52.130;5.584;2022-10-16T04:25:04;3.40;;;2.40;;
75320;SDS011;63920;52.130;5.584;2022-10-16T04:27:30;8.05;;;3.33;;
75320;SDS011;63920;52.130;5.584;2022-10-16T04:29:56;3.47;;;2.50;;
75320;SDS011;63920;52.130;5.584;2022-10-16T04:32:22;4.40;;;2.63;;
75320;SDS011;63920;52.130;5.584;2022-10-16T04:34:48;3.83;;;2.67;;
75320;SDS011;63920;52.130;5.584;2022-10-16T04:37:13;4.90;;;3.03;;
75320;SDS011;63920;52.130;5.584;2022-10-16T04:39:39;3.25;;;2.70;;
75320;SDS011;63920;52.130;5.584;2022-10-16T04:42:05;2.10;;;2.00;;
75320;SDS011;63920;52.130;5.584;2022-10-16T04:44:30;3.03;;;2.65;;
75320;SDS011;63920;52.130;5.584;2022-10-16T04:46:56;4.30;;;2.85;;
75320;SDS011;63920;52.130;5.584;2022-10-16T04:49:21;3.13;;;2.78;;
75320;SDS011;63920;52.130;5.584;2022-10-16T04:51:47;6.78;;;3.17;;
75320;SDS011;63920;52.130;5.584;2022-10-16T04:54:12;2.88;;;2.65;;
75320;SDS011;63920;52.130;5.584;2022-10-16T04:56:38;4.30;;;2.65;;
75320;SDS011;63920;52.130;5.584;2022-10-16T04:59:13;4.32;;;2.85;;
75320;SDS011;63920;52.130;5.584;2022-10-16T05:01:39;3.88;;;2.97;;
75320;SDS011;63920;52.130;5.584;2022-10-16T05:04:05;6.70;;;2.92;;
75320;SDS011;63920;52.130;5.584;2022-10-16T05:06:30;4.63;;;3.05;;
75320;SDS011;63920;52.130;5.584;2022-10-16T05:08:56;6.28;;;2.95;;
75320;SDS011;63920;52.130;5.584;2022-10-16T05:11:21;5.38;;;2.58;;
75320;SDS011;63920;52.130;5.584;2022-10-16T05:13:47;3.85;;;2.63;;
75320;SDS011;63920;52.130;5.584;2022-10-16T05:16:12;5.93;;;2.67;;
75320;SDS011;63920;52.130;5.584;2022-10-16T05:18:38;4.00;;;2.67;;
75320;SDS011;63920;52.130;5.584;2022-10-16T05:21:03;5.43;;;3.08;;
75320;SDS011;63920;52.130;5.584;2022-10-16T05:23:30;7.60;;;3.75;;
75320;SDS011;63920;52.130;5.584;2022-10-16T05:25:56;6.78;;;3.13;;
75320;SDS011;63920;52.130;5.584;2022-10-16T05:28:23;7.00;;;3.25;;
75320;SDS011;63920;52.130;5.584;2022-10-16T05:30:49;4.60;;;3.33;;
75320;SDS011;63920;52.130;5.584;2022-10-16T05:33:19;4.97;;;3.40;;
75320;SDS011;63920;52.130;5.584;2022-10-16T05:35:46;5.07;;;3.90;;
75320;SDS011;63920;52.130;5.584;2022-10-16T05:38:11;6.13;;;3.70;;
75320;SDS011;63920;52.130;5.584;2022-10-16T05:40:37;6.22;;;3.92;;
75320;SDS011;63920;52.130;5.584;2022-10-16T05:43:02;8.07;;;4.45;;
75320;SDS011;63920;52.130;5.584;2022-10-16T05:45:28;8.60;;;3.78;;
75320;SDS011;63920;52.130;5.584;2022-10-16T05:47:54;4.43;;;3.90;;
75320;SDS011;63920;52.130;5.584;2022-10-16T05:50:19;9.02;;;4.72;;
75320;SDS011;63920;52.130;5.584;2022-10-16T05:52:45;6.70;;;4.70;;
75320;SDS011;63920;52.130;5.584;2022-10-16T05:55:10;6.65;;;4.85;;
75320;SDS011;63920;52.130;5.584;2022-10-16T05:57:36;9.40;;;5.72;;
75320;SDS011;63920;52.130;5.584;2022-10-16T06:00:02;14.43;;;6.38;;
75320;SDS011;63920;52.130;5.584;2022-10-16T06:02:28;12.00;;;7.63;;
75320;SDS011;63920;52.130;5.584;2022-10-16T06:04:54;6.60;;;5.22;;
75320;SDS011;63920;52.130;5.584;2022-10-16T06:07:20;8.05;;;4.80;;
75320;SDS011;63920;52.130;5.584;2022-10-16T06:09:49;5.95;;;5.05;;
75320;SDS011;63920;52.130;5.584;2022-10-16T06:12:16;5.47;;;4.70;;
75320;SDS011;63920;52.130;5.584;2022-10-16T06:14:42;10.07;;;4.93;;
75320;SDS011;63920;52.130;5.584;2022-10-16T06:17:07;7.43;;;4.70;;
75320;SDS011;63920;52.130;5.584;2022-10-16T06:19:33;5.18;;;4.28;;
75320;SDS011;63920;52.130;5.584;2022-10-16T06:21:58;5.20;;;4.70;;
75320;SDS011;63920;52.130;5.584;2022-10-16T06:24:25;6.10;;;4.00;;
75320;SDS011;63920;52.130;5.584;2022-10-16T06:26:50;5.78;;;4.10;;
75320;SDS011;63920;52.130;5.584;2022-10-16T06:29:16;4.47;;;3.58;;
75320;SDS011;63920;52.130;5.584;2022-10-16T06:31:41;4.70;;;3.85;;
75320;SDS011;63920;52.130;5.584;2022-10-16T06:34:08;9.57;;;3.83;;
75320;SDS011;63920;52.130;5.584;2022-10-16T06:36:36;6.65;;;3.47;;
75320;SDS011;63920;52.130;5.584;2022-10-16T06:39:03;3.92;;;3.30;;
75320;SDS011;63920;52.130;5.584;2022-10-16T06:41:30;7.22;;;3.30;;
75320;SDS011;63920;52.130;5.584;2022-10-16T06:43:56;5.10;;;3.50;;
75320;SDS011;63920;52.130;5.584;2022-10-16T06:46:22;8.35;;;4.18;;
75320;SDS011;63920;52.130;5.584;2022-10-16T06:48:49;7.10;;;2.83;;
75320;SDS011;63920;52.130;5.584;2022-10-16T06:51:16;4.93;;;3.33;;
75320;SDS011;63920;52.130;5.584;2022-10-16T06:53:46;5.20;;;3.35;;
75320;SDS011;63920;52.130;5.584;2022-10-16T06:56:18;4.13;;;3.45;;
75320;SDS011;63920;52.130;5.584;2022-10-16T06:58:54;6.95;;;6.25;;
75320;SDS011;63920;52.130;5.584;2022-10-16T07:01:21;6.72;;;4.63;;
75320;SDS011;63920;52.130;5.584;2022-10-16T07:03:48;6.00;;;4.63;;
75320;SDS011;63920;52.130;5.584;2022-10-16T07:06:15;6.78;;;3.72;;
75320;SDS011;63920;52.130;5.584;2022-10-16T07:08:43;4.75;;;3.45;;
75320;SDS011;63920;52.130;5.584;2022-10-16T07:11:11;5.82;;;3.00;;
75320;SDS011;63920;52.130;5.584;2022-10-16T07:13:39;4.35;;;3.03;;
75320;SDS011;63920;52.130;5.584;2022-10-16T07:16:06;5.22;;;3.10;;
75320;SDS011;63920;52.130;5.584;2022-10-16T07:18:36;5.78;;;3.13;;
75320;SDS011;63920;52.130;5.584;2022-10-16T07:21:07;3.40;;;3.10;;
75320;SDS011;63920;52.130;5.584;2022-10-16T07:23:34;4.38;;;2.92;;
75320;SDS011;63920;52.130;5.584;2022-10-16T07:26:00;6.63;;;2.80;;
75320;SDS011;63920;52.130;5.584;2022-10-16T07:28:26;4.03;;;2.90;;
75320;SDS011;63920;52.130;5.584;2022-10-16T07:30:52;11.77;;;6.75;;
75320;SDS011;63920;52.130;5.584;2022-10-16T07:33:18;8.18;;;5.68;;
75320;SDS011;63920;52.130;5.584;2022-10-16T07:35:47;4.72;;;3.83;;
75320;SDS011;63920;52.130;5.584;2022-10-16T07:38:17;9.70;;;3.65;;
75320;SDS011;63920;52.130;5.584;2022-10-16T07:40:43;8.18;;;3.35;;
75320;SDS011;63920;52.130;5.584;2022-10-16T07:43:09;5.05;;;3.15;;
75320;SDS011;63920;52.130;5.584;2022-10-16T07:45:34;4.65;;;2.88;;
75320;SDS011;63920;52.130;5.584;2022-10-16T07:48:00;7.60;;;2.70;;
75320;SDS011;63920;52.130;5.584;2022-10-16T07:50:25;5.25;;;3.03;;
75320;SDS011;63920;52.130;5.584;2022-10-16T07:52:51;3.63;;;2.58;;
75320;SDS011;63920;52.130;5.584;2022-10-16T07:55:17;4.65;;;2.63;;
75320;SDS011;63920;52.130;5.584;2022-10-16T07:57:42;5.60;;;3.40;;
75320;SDS011;63920;52.130;5.584;2022-10-16T08:00:08;5.53;;;3.08;;
75320;SDS011;63920;52.130;5.584;2022-10-16T08:02:39;7.32;;;3.08;;
75320;SDS011;63920;52.130;5.584;2022-10-16T08:05:05;7.85;;;3.55;;
75320;SDS011;63920;52.130;5.584;2022-10-16T08:07:31;6.07;;;4.53;;
75320;SDS011;63920;52.130;5.584;2022-10-16T08:09:57;8.15;;;4.07;;
75320;SDS011;63920;52.130;5.584;2022-10-16T08:12:23;7.07;;;4.63;;
75320;SDS011;63920;52.130;5.584;2022-10-16T08:14:49;5.38;;;3.60;;
75320;SDS011;63920;52.130;5.584;2022-10-16T08:17:15;7.05;;;4.18;;
75320;SDS011;63920;52.130;5.584;2022-10-16T08:19:43;9.43;;;3.83;;
75320;SDS011;63920;52.130;5.584;2022-10-16T08:22:10;4.13;;;3.25;;
75320;SDS011;63920;52.130;5.584;2022-10-16T08:24:35;9.13;;;3.20;;
75320;SDS011;63920;52.130;5.584;2022-10-16T08:27:02;6.80;;;3.08;;
75320;SDS011;63920;52.130;5.584;2022-10-16T08:29:27;6.22;;;3.03;;
75320;SDS011;63920;52.130;5.584;2022-10-16T08:31:53;3.10;;;2.63;;
75320;SDS011;63920;52.130;5.584;2022-10-16T08:34:19;7.28;;;2.80;;
75320;SDS011;63920;52.130;5.584;2022-10-16T08:36:44;5.78;;;2.58;;
75320;SDS011;63920;52.130;5.584;2022-10-16T08:39:10;4.25;;;3.10;;
75320;SDS011;63920;52.130;5.584;2022-10-16T08:44:30;7.65;;;2.80;;
75320;SDS011;63920;52.130;5.584;2022-10-16T08:47:19;8.00;;;2.70;;
75320;SDS011;63920;52.130;5.584;2022-10-16T08:50:09;8.98;;;2.95;;
75320;SDS011;63920;52.130;5.584;2022-10-16T08:52:41;7.05;;;2.78;;
75320;SDS011;63920;52.130;5.584;2022-10-16T08:55:17;7.05;;;2.75;;
75320;SDS011;63920;52.130;5.584;2022-10-16T08:57:55;4.60;;;2.75;;
75320;SDS011;63920;52.130;5.584;2022-10-16T09:00:21;10.73;;;2.97;;
75320;SDS011;63920;52.130;5.584;2022-10-16T09:02:52;4.25;;;2.85;;
75320;SDS011;63920;52.130;5.584;2022-10-16T09:11:37;10.35;;;3.03;;
75320;SDS011;63920;52.130;5.584;2022-10-16T09:17:26;10.68;;;3.22;;
75320;SDS011;63920;52.130;5.584;2022-10-16T09:25:50;11.40;;;3.03;;
75320;SDS011;63920;52.130;5.584;2022-10-16T09:28:17;8.07;;;2.45;;
75320;SDS011;63920;52.130;5.584;2022-10-16T09:30:44;10.88;;;2.70;;
75320;SDS011;63920;52.130;5.584;2022-10-16T09:33:11;10.05;;;2.75;;
75320;SDS011;63920;52.130;5.584;2022-10-16T09:35:44;7.13;;;2.38;;
75320;SDS011;63920;52.130;5.584;2022-10-16T09:38:22;11.32;;;2.90;;
75320;SDS011;63920;52.130;5.584;2022-10-16T09:40:56;9.20;;;2.47;;
75320;SDS011;63920;52.130;5.584;2022-10-16T09:43:32;8.82;;;2.88;;
75320;SDS011;63920;52.130;5.584;2022-10-16T09:46:05;7.82;;;2.55;;
75320;SDS011;63920;52.130;5.584;2022-10-16T09:48:54;8.88;;;2.53;;
75320;SDS011;63920;52.130;5.584;2022-10-16T09:53:56;11.77;;;3.40;;
75320;SDS011;63920;52.130;5.584;2022-10-16T09:56:27;12.23;;;2.58;;
75320;SDS011;63920;52.130;5.584;2022-10-16T09:58:58;12.82;;;3.20;;
75320;SDS011;63920;52.130;5.584;2022-10-16T10:01:30;11.65;;;2.85;;
75320;SDS011;63920;52.130;5.584;2022-10-16T10:04:02;13.35;;;3.40;;
75320;SDS011;63920;52.130;5.584;2022-10-16T10:06:29;5.72;;;2.05;;
75320;SDS011;63920;52.130;5.584;2022-10-16T10:09:03;7.15;;;2.92;;
75320;SDS011;63920;52.130;5.584;2022-10-16T10:11:54;8.00;;;2.38;;
75320;SDS011;63920;52.130;5.584;2022-10-16T10:14:29;7.60;;;2.35;;
75320;SDS011;63920;52.130;5.584;2022-10-16T10:17:06;7.88;;;2.45;;
75320;SDS011;63920;52.130;5.584;2022-10-16T10:33:07;10.48;;;2.90;;
75320;SDS011;63920;52.130;5.584;2022-10-16T10:36:04;13.60;;;2.65;;
75320;SDS011;63920;52.130;5.584;2022-10-16T10:55:22;11.45;;;2.78;;
75320;SDS011;63920;52.130;5.584;2022-10-16T10:58:18;9.20;;;2.67;;
75320;SDS011;63920;52.130;5.584;2022-10-16T11:06:36;13.38;;;2.40;;
75320;SDS011;63920;52.130;5.584;2022-10-16T11:09:24;10.65;;;2.13;;
75320;SDS011;63920;52.130;5.584;2022-10-16T11:14:49;10.68;;;2.13;;
75320;SDS011;63920;52.130;5.584;2022-10-16T11:17:25;13.05;;;2.42;;
75320;SDS011;63920;52.130;5.584;2022-10-16T11:19:58;9.25;;;2.60;;
75320;SDS011;63920;52.130;5.584;2022-10-16T11:22:38;12.13;;;2.60;;
75320;SDS011;63920;52.130;5.584;2022-10-16T11:25:33;13.35;;;1.90;;
75320;SDS011;63920;52.130;5.584;2022-10-16T11:31:00;12.70;;;2.83;;
75320;SDS011;63920;52.130;5.584;2022-10-16T11:36:25;10.32;;;2.50;;
75320;SDS011;63920;52.130;5.584;2022-10-16T11:49:52;12.93;;;2.50;;
75320;SDS011;63920;52.130;5.584;2022-10-16T11:52:25;5.55;;;1.65;;
75320;SDS011;63920;52.130;5.584;2022-10-16T11:55:01;7.82;;;2.22;;
75320;SDS011;63920;52.130;5.584;2022-10-16T11:57:31;12.00;;;2.22;;
75320;SDS011;63920;52.130;5.584;2022-10-16T12:00:20;8.90;;;2.13;;
75320;SDS011;63920;52.130;5.584;2022-10-16T12:03:17;6.35;;;1.45;;
75320;SDS011;63920;52.130;5.584;2022-10-16T12:08:52;9.48;;;2.08;;
75320;SDS011;63920;52.130;5.584;2022-10-16T12:11:23;7.18;;;1.73;;
75320;SDS011;63920;52.130;5.584;2022-10-16T12:14:03;9.60;;;2.08;;
75320;SDS011;63920;52.130;5.584;2022-10-16T12:19:22;8.95;;;2.03;;
75320;SDS011;63920;52.130;5.584;2022-10-16T12:21:49;6.88;;;1.67;;
75320;SDS011;63920;52.130;5.584;2022-10-16T12:26:48;11.68;;;2.50;;
75320;SDS011;63920;52.130;5.584;2022-10-16T12:29:36;13.15;;;2.40;;
75320;SDS011;63920;52.130;5.584;2022-10-16T12:32:24;7.60;;;2.53;;
75320;SDS011;63920;52.130;5.584;2022-10-16T12:35:05;8.15;;;2.00;;
75320;SDS011;63920;52.130;5.584;2022-10-16T12:37:33;6.38;;;1.80;;
75320;SDS011;63920;52.130;5.584;2022-10-16T12:40:11;9.52;;;2.40;;
75320;SDS011;63920;52.130;5.584;2022-10-16T12:42:38;5.25;;;1.65;;
75320;SDS011;63920;52.130;5.584;2022-10-16T12:47:54;7.55;;;1.90;;
75320;SDS011;63920;52.130;5.584;2022-10-16T12:52:57;10.98;;;1.85;;
75320;SDS011;63920;52.130;5.584;2022-10-16T12:55:23;5.85;;;1.73;;
75320;SDS011;63920;52.130;5.584;2022-10-16T12:58:09;8.32;;;2.47;;
75320;SDS011;63920;52.130;5.584;2022-10-16T13:00:48;8.30;;;1.83;;
75320;SDS011;63920;52.130;5.584;2022-10-16T13:06:13;6.57;;;2.17;;
75320;SDS011;63920;52.130;5.584;2022-10-16T13:14:24;11.68;;;2.35;;
75320;SDS011;63920;52.130;5.584;2022-10-16T13:17:21;7.47;;;1.73;;
75320;SDS011;63920;52.130;5.584;2022-10-16T13:25:43;7.68;;;1.90;;
75320;SDS011;63920;52.130;5.584;2022-10-16T13:28:13;10.80;;;2.10;;
75320;SDS011;63920;52.130;5.584;2022-10-16T13:30:43;13.13;;;2.25;;
75320;SDS011;63920;52.130;5.584;2022-10-16T13:33:17;9.35;;;2.28;;
75320;SDS011;63920;52.130;5.584;2022-10-16T13:35:50;10.50;;;2.33;;
75320;SDS011;63920;52.130;5.584;2022-10-16T13:38:18;12.63;;;2.20;;
75320;SDS011;63920;52.130;5.584;2022-10-16T13:40:53;11.77;;;2.83;;
75320;SDS011;63920;52.130;5.584;2022-10-16T13:43:28;9.65;;;2.33;;
75320;SDS011;63920;52.130;5.584;2022-10-16T13:46:00;8.90;;;2.13;;
75320;SDS011;63920;52.130;5.584;2022-10-16T13:48:29;11.55;;;1.92;;
75320;SDS011;63920;52.130;5.584;2022-10-16T13:50:59;10.75;;;2.50;;
75320;SDS011;63920;52.130;5.584;2022-10-16T13:53:39;5.90;;;2.13;;
75320;SDS011;63920;52.130;5.584;2022-10-16T13:56:07;10.65;;;2.05;;
75320;SDS011;63920;52.130;5.584;2022-10-16T13:58:39;10.10;;;2.28;;
75320;SDS011;63920;52.130;5.584;2022-10-16T14:01:05;6.70;;;2.53;;
75320;SDS011;63920;52.130;5.584;2022-10-16T14:03:47;11.77;;;2.15;;
75320;SDS011;63920;52.130;5.584;2022-10-16T14:06:18;7.95;;;2.08;;
75320;SDS011;63920;52.130;5.584;2022-10-16T14:08:49;8.15;;;2.15;;
75320;SDS011;63920;52.130;5.584;2022-10-16T14:11:45;9.35;;;2.05;;
75320;SDS011;63920;52.130;5.584;2022-10-16T14:14:34;8.02;;;2.50;;
75320;SDS011;63920;52.130;5.584;2022-10-16T14:17:06;8.85;;;2.25;;
75320;SDS011;63920;52.130;5.584;2022-10-16T14:19:38;9.38;;;2.35;;
75320;SDS011;63920;52.130;5.584;2022-10-16T14:22:20;9.02;;;3.08;;
75320;SDS011;63920;52.130;5.584;2022-10-16T14:24:58;7.60;;;2.13;;
75320;SDS011;63920;52.130;5.584;2022-10-16T14:27:34;10.38;;;2.67;;
75320;SDS011;63920;52.130;5.584;2022-10-16T14:32:39;11.73;;;2.70;;
75320;SDS011;63920;52.130;5.584;2022-10-16T14:35:21;9.85;;;2.65;;
75320;SDS011;63920;52.130;5.584;2022-10-16T14:37:57;10.55;;;2.63;;
75320;SDS011;63920;52.130;5.584;2022-10-16T14:40:26;9.48;;;2.47;;
75320;SDS011;63920;52.130;5.584;2022-10-16T14:42:54;14.18;;;2.47;;
75320;SDS011;63920;52.130;5.584;2022-10-16T14:45:27;12.55;;;1.95;;
75320;SDS011;63920;52.130;5.584;2022-10-16T14:47:56;12.43;;;2.30;;
75320;SDS011;63920;52.130;5.584;2022-10-16T14:50:24;8.98;;;2.28;;
75320;SDS011;63920;52.130;5.584;2022-10-16T14:52:49;14.60;;;2.70;;
75320;SDS011;63920;52.130;5.584;2022-10-16T14:55:15;8.10;;;1.95;;
75320;SDS011;63920;52.130;5.584;2022-10-16T14:57:42;8.65;;;2.53;;
75320;SDS011;63920;52.130;5.584;2022-10-16T15:00:10;9.40;;;2.58;;
75320;SDS011;63920;52.130;5.584;2022-10-16T15:02:46;11.93;;;2.17;;
75320;SDS011;63920;52.130;5.584;2022-10-16T15:07:46;6.50;;;1.88;;
75320;SDS011;63920;52.130;5.584;2022-10-16T15:10:13;9.10;;;1.98;;
75320;SDS011;63920;52.130;5.584;2022-10-16T15:12:40;11.40;;;2.20;;
75320;SDS011;63920;52.130;5.584;2022-10-16T15:15:21;6.63;;;1.98;;
75320;SDS011;63920;52.130;5.584;2022-10-16T15:17:52;12.02;;;2.55;;
75320;SDS011;63920;52.130;5.584;2022-10-16T15:20:21;12.80;;;2.85;;
75320;SDS011;63920;52.130;5.584;2022-10-16T15:22:47;10.20;;;1.77;;
75320;SDS011;63920;52.130;5.584;2022-10-16T15:27:52;8.45;;;2.20;;
75320;SDS011;63920;52.130;5.584;2022-10-16T15:30:18;12.93;;;2.58;;
75320;SDS011;63920;52.130;5.584;2022-10-16T15:32:43;15.88;;;2.95;;
75320;SDS011;63920;52.130;5.584;2022-10-16T15:35:09;11.75;;;2.85;;
75320;SDS011;63920;52.130;5.584;2022-10-16T15:37:35;12.00;;;2.97;;
75320;SDS011;63920;52.130;5.584;2022-10-16T15:40:00;12.60;;;2.97;;
75320;SDS011;63920;52.130;5.584;2022-10-16T15:42:26;16.42;;;3.20;;
75320;SDS011;63920;52.130;5.584;2022-10-16T15:44:51;13.25;;;3.95;;
75320;SDS011;63920;52.130;5.584;2022-10-16T15:47:17;12.52;;;4.43;;
75320;SDS011;63920;52.130;5.584;2022-10-16T15:49:42;10.85;;;4.07;;
75320;SDS011;63920;52.130;5.584;2022-10-16T15:52:08;13.38;;;4.90;;
75320;SDS011;63920;52.130;5.584;2022-10-16T15:54:34;11.93;;;4.80;;
75320;SDS011;63920;52.130;5.584;2022-10-16T15:56:59;11.88;;;5.00;;
75320;SDS011;63920;52.130;5.584;2022-10-16T15:59:26;15.27;;;6.90;;
75320;SDS011;63920;52.130;5.584;2022-10-16T16:01:51;12.50;;;5.28;;
75320;SDS011;63920;52.130;5.584;2022-10-16T16:04:20;16.23;;;6.20;;
75320;SDS011;63920;52.130;5.584;2022-10-16T16:06:45;12.10;;;5.13;;
75320;SDS011;63920;52.130;5.584;2022-10-16T16:09:11;13.23;;;4.88;;
75320;SDS011;63920;52.130;5.584;2022-10-16T16:11:38;17.85;;;4.50;;
75320;SDS011;63920;52.130;5.584;2022-10-16T16:14:04;10.85;;;3.78;;
75320;SDS011;63920;52.130;5.584;2022-10-16T16:16:31;10.27;;;3.70;;
75320;SDS011;63920;52.130;5.584;2022-10-16T16:19:01;11.43;;;3.97;;
75320;SDS011;63920;52.130;5.584;2022-10-16T16:21:27;7.55;;;4.35;;
75320;SDS011;63920;52.130;5.584;2022-10-16T16:23:53;19.08;;;4.55;;
75320;SDS011;63920;52.130;5.584;2022-10-16T16:26:23;17.10;;;5.75;;
75320;SDS011;63920;52.130;5.584;2022-10-16T16:28:57;12.63;;;5.93;;
75320;SDS011;63920;52.130;5.584;2022-10-16T16:31:26;21.40;;;6.22;;
75320;SDS011;63920;52.130;5.584;2022-10-16T16:33:53;20.83;;;7.65;;
75320;SDS011;63920;52.130;5.584;2022-10-16T16:36:19;15.80;;;7.88;;
75320;SDS011;63920;52.130;5.584;2022-10-16T16:38:45;22.40;;;8.02;;
75320;SDS011;63920;52.130;5.584;2022-10-16T16:41:15;15.35;;;7.05;;
75320;SDS011;63920;52.130;5.584;2022-10-16T16:43:42;19.55;;;8.60;;
75320;SDS011;63920;52.130;5.584;2022-10-16T16:46:08;15.65;;;6.88;;
75320;SDS011;63920;52.130;5.584;2022-10-16T16:48:34;14.98;;;6.13;;
75320;SDS011;63920;52.130;5.584;2022-10-16T16:51:03;13.63;;;5.10;;
75320;SDS011;63920;52.130;5.584;2022-10-16T16:53:30;16.80;;;6.03;;
75320;SDS011;63920;52.130;5.584;2022-10-16T16:55:55;13.88;;;6.47;;
75320;SDS011;63920;52.130;5.584;2022-10-16T16:58:26;20.00;;;6.60;;
75320;SDS011;63920;52.130;5.584;2022-10-16T17:00:51;11.68;;;5.68;;
75320;SDS011;63920;52.130;5.584;2022-10-16T17:03:17;13.23;;;7.22;;
75320;SDS011;63920;52.130;5.584;2022-10-16T17:05:42;16.75;;;7.03;;
75320;SDS011;63920;52.130;5.584;2022-10-16T17:08:08;17.92;;;7.50;;
75320;SDS011;63920;52.130;5.584;2022-10-16T17:10:33;17.33;;;6.88;;
75320;SDS011;63920;52.130;5.584;2022-10-16T17:13:06;15.38;;;6.55;;